Time;durP1;ratioP1;P1;durP2;ratioP2;P2;SDS_P1;SDS_P2;PMS_P1;PMS_P2;Temp;Humidity;BMP_temperature;BMP_pressure;BME280_temperature;BME280_humidity;BME280_pressure;Samples;Min_cycle;Max_cycle;Signal;HPM_P1;HPM_P2
2023/04/07 00:00:40;;;;;;;67.60;42.20;;;6.00;80.00;;;;;;5098468;28;20142;-76
2023/04/07 00:03:06;;;;;;;71.20;42.67;;;6.00;80.10;;;;;;5100839;28;20103;-76
2023/04/07 00:05:32;;;;;;;73.70;45.07;;;6.00;80.00;;;;;;5080825;28;20048;-76
2023/04/07 00:07:58;;;;;;;67.13;44.47;;;6.00;80.20;;;;;;5083621;28;20490;-76
2023/04/07 00:10:24;;;;;;;76.87;45.83;;;6.00;80.20;;;;;;5100633;28;20047;-76
2023/04/07 00:12:50;;;;;;;74.40;45.13;;;6.00;80.30;;;;;;5099736;28;20044;-76
2023/04/07 00:15:16;;;;;;;73.77;46.50;;;6.00;80.30;;;;;;5082729;28;20043;-76
2023/04/07 00:17:41;;;;;;;76.33;46.57;;;6.00;80.40;;;;;;5085797;28;20052;-76
2023/04/07 00:20:07;;;;;;;82.80;47.03;;;6.00;80.50;;;;;;5099477;28;20071;-76
2023/04/07 00:22:33;;;;;;;82.83;47.77;;;6.00;80.50;;;;;;5095928;28;20055;-76
2023/04/07 00:24:59;;;;;;;84.13;48.83;;;6.00;80.50;;;;;;5096439;28;20550;-76
2023/04/07 00:27:25;;;;;;;77.27;49.37;;;6.00;80.50;;;;;;5077626;28;20044;-76
2023/04/07 00:29:53;;;;;;;82.37;49.13;;;6.00;80.50;;;;;;5101506;28;20495;-76
2023/04/07 00:32:19;;;;;;;85.70;49.67;;;6.00;80.50;;;;;;5105469;28;20059;-76
2023/04/07 00:34:45;;;;;;;88.77;50.67;;;6.00;80.60;;;;;;5103629;28;20108;-76
2023/04/07 00:37:11;;;;;;;81.57;49.90;;;6.00;80.50;;;;;;5088574;28;20532;-76
2023/04/07 00:39:36;;;;;;;85.37;49.77;;;6.00;80.60;;;;;;5103124;28;20063;-76
2023/04/07 00:42:04;;;;;;;85.27;50.40;;;6.00;80.50;;;;;;5102490;28;20043;-75
2023/04/07 00:44:30;;;;;;;87.50;51.57;;;6.00;80.50;;;;;;5085105;28;20633;-76
2023/04/07 00:46:56;;;;;;;97.93;53.70;;;6.00;80.60;;;;;;5070103;28;20126;-76
2023/04/07 00:49:21;;;;;;;91.93;51.40;;;6.00;80.60;;;;;;5095106;28;20564;-76
2023/04/07 00:51:47;;;;;;;99.33;54.67;;;6.00;80.70;;;;;;5101921;28;20043;-76
2023/04/07 00:54:14;;;;;;;99.70;54.80;;;6.00;80.70;;;;;;5103035;28;20047;-76
2023/04/07 00:56:40;;;;;;;99.70;55.00;;;6.00;80.80;;;;;;5050881;28;20482;-76
2023/04/07 00:59:05;;;;;;;93.33;52.77;;;6.00;80.70;;;;;;5076756;28;20071;-75
2023/04/07 01:01:39;;;;;;;96.63;54.97;;;6.00;80.60;;;;;;5104001;28;20048;-76
2023/04/07 01:04:10;;;;;;;106.33;55.73;;;6.00;80.70;;;;;;5099522;28;20044;-76
2023/04/07 01:06:42;;;;;;;105.15;56.20;;;6.00;80.70;;;;;;5084647;28;20050;-76
2023/04/07 01:09:35;;;;;;;95.17;54.33;;;6.00;80.80;;;;;;5101306;28;20412;-76
2023/04/07 01:12:39;;;;;;;98.90;55.17;;;6.00;80.70;;;;;;5102508;28;20409;-76
2023/04/07 01:15:11;;;;;;;105.03;57.20;;;6.00;80.80;;;;;;5056690;28;20044;-76
2023/04/07 01:17:45;;;;;;;113.78;57.50;;;6.00;80.80;;;;;;5070630;28;21165;-76
2023/04/07 01:20:19;;;;;;;109.97;57.90;;;6.00;80.80;;;;;;5103103;28;20069;-76
2023/04/07 01:22:51;;;;;;;106.87;57.33;;;6.00;80.80;;;;;;5100217;28;20603;-76
2023/04/07 01:25:43;;;;;;;108.03;58.40;;;6.00;80.80;;;;;;5087616;28;20082;-76
2023/04/07 01:28:20;;;;;;;117.37;60.03;;;6.00;80.90;;;;;;5084991;28;20055;-76
2023/04/07 01:30:47;;;;;;;101.43;56.43;;;6.00;80.90;;;;;;5101480;28;20104;-76
2023/04/07 01:33:14;;;;;;;108.20;57.23;;;6.00;80.90;;;;;;5104777;28;20043;-76
2023/04/07 01:35:41;;;;;;;109.70;59.17;;;6.10;80.80;;;;;;5083528;28;20126;-76
2023/04/07 01:38:08;;;;;;;110.20;58.03;;;6.00;80.80;;;;;;5083767;28;20076;-76
2023/04/07 01:40:36;;;;;;;108.93;57.33;;;6.00;80.80;;;;;;5097963;28;20060;-76
2023/04/07 01:43:03;;;;;;;106.90;57.93;;;6.00;80.80;;;;;;5101667;28;20119;-76
2023/04/07 01:45:31;;;;;;;109.50;58.00;;;6.00;80.80;;;;;;5067664;28;20406;-76
2023/04/07 01:47:57;;;;;;;100.00;55.60;;;6.00;80.80;;;;;;5070725;28;20051;-76
2023/04/07 01:50:23;;;;;;;94.73;54.63;;;6.00;80.80;;;;;;5102403;28;20574;-76
2023/04/07 01:52:49;;;;;;;101.53;54.20;;;6.00;80.80;;;;;;5077140;28;20398;-76
2023/04/07 01:55:15;;;;;;;102.63;55.70;;;6.00;80.80;;;;;;5082980;28;20052;-76
2023/04/07 01:57:40;;;;;;;104.97;56.13;;;6.00;80.90;;;;;;5086019;28;20434;-76
2023/04/07 02:00:07;;;;;;;112.63;56.47;;;6.00;80.90;;;;;;5099607;28;20169;-76
2023/04/07 02:02:40;;;;;;;91.67;53.50;;;6.00;80.90;;;;;;5063615;28;20130;-76
2023/04/07 02:05:11;;;;;;;97.10;53.60;;;6.00;80.90;;;;;;5097347;28;20047;-76
2023/04/07 02:07:56;;;;;;;96.80;53.58;;;6.10;80.90;;;;;;5067321;28;20043;-76
2023/04/07 02:10:25;;;;;;;110.27;55.63;;;6.00;80.80;;;;;;5064751;28;20043;-76
2023/04/07 02:12:52;;;;;;;110.67;57.03;;;6.00;80.90;;;;;;5100255;28;20048;-76
2023/04/07 02:15:18;;;;;;;107.47;56.63;;;6.10;80.90;;;;;;5091773;28;20048;-76
2023/04/07 02:17:48;;;;;;;94.50;53.57;;;6.10;80.90;;;;;;5071958;28;20404;-76
2023/04/07 02:20:16;;;;;;;105.90;55.70;;;6.10;80.90;;;;;;5081580;28;20039;-75
2023/04/07 02:22:43;;;;;;;101.67;54.53;;;6.10;80.90;;;;;;5082646;28;20105;-76
2023/04/07 02:25:25;;;;;;;97.77;54.20;;;6.10;80.90;;;;;;5103163;28;20051;-76
2023/04/07 02:27:52;;;;;;;99.67;53.67;;;6.00;80.80;;;;;;5082477;28;20051;-76
2023/04/07 02:30:18;;;;;;;98.37;52.87;;;6.10;80.90;;;;;;5101587;28;20056;-76
2023/04/07 02:32:44;;;;;;;99.40;54.87;;;6.10;80.90;;;;;;5096093;28;20047;-76
2023/04/07 02:35:11;;;;;;;100.07;54.77;;;6.10;80.90;;;;;;5100262;28;20051;-76
2023/04/07 02:37:40;;;;;;;110.03;55.37;;;6.10;80.90;;;;;;5067945;28;20537;-75
2023/04/07 02:40:06;;;;;;;95.00;54.27;;;6.10;80.90;;;;;;5098203;28;20051;-76
2023/04/07 02:42:32;;;;;;;104.93;55.13;;;6.10;80.90;;;;;;5100966;28;20386;-76
2023/04/07 02:44:57;;;;;;;100.67;56.03;;;6.10;80.90;;;;;;5100653;28;20039;-76
2023/04/07 02:47:24;;;;;;;111.60;56.57;;;6.10;81.00;;;;;;5085733;28;20474;-76
2023/04/07 02:49:50;;;;;;;96.83;54.63;;;6.10;81.00;;;;;;5077129;28;20059;-76
2023/04/07 02:52:16;;;;;;;101.80;54.40;;;6.10;81.00;;;;;;5098327;28;20078;-76
2023/04/07 02:54:42;;;;;;;105.50;55.00;;;6.10;81.00;;;;;;5101018;28;20395;-76
2023/04/07 02:57:07;;;;;;;118.07;57.53;;;6.10;80.90;;;;;;5085367;28;20040;-75
2023/04/07 02:59:33;;;;;;;102.43;53.67;;;6.10;81.00;;;;;;5103037;28;20089;-76
2023/04/07 03:01:59;;;;;;;100.10;53.23;;;6.10;80.90;;;;;;5104000;28;20339;-76
2023/04/07 03:04:24;;;;;;;91.43;51.40;;;6.10;80.90;;;;;;5097688;28;20039;-76
2023/04/07 03:06:50;;;;;;;98.80;53.77;;;6.10;81.00;;;;;;5085055;28;20075;-76
2023/04/07 03:09:15;;;;;;;92.93;52.67;;;6.10;81.00;;;;;;5099567;28;20491;-76
2023/04/07 03:11:41;;;;;;;99.60;54.03;;;6.10;81.00;;;;;;5100356;28;20500;-76
2023/04/07 03:14:07;;;;;;;92.40;52.33;;;6.10;81.00;;;;;;5099842;28;20056;-76
2023/04/07 03:16:33;;;;;;;97.33;54.87;;;6.10;81.10;;;;;;5087616;27;20052;-75
2023/04/07 03:18:58;;;;;;;97.97;52.93;;;6.10;81.00;;;;;;5099911;27;20413;-76
2023/04/07 03:21:24;;;;;;;101.73;53.33;;;6.10;80.90;;;;;;5100275;28;20085;-76
2023/04/07 03:23:49;;;;;;;97.40;53.10;;;6.10;81.00;;;;;;5099600;28;20035;-76
2023/04/07 03:26:15;;;;;;;96.97;52.63;;;6.10;80.90;;;;;;5089989;28;20392;-75
2023/04/07 03:28:41;;;;;;;104.37;54.33;;;6.10;80.90;;;;;;5076359;28;20040;-76
2023/04/07 03:31:07;;;;;;;99.30;53.43;;;6.10;80.80;;;;;;5100931;28;20044;-76
2023/04/07 03:33:32;;;;;;;110.63;56.53;;;6.10;80.80;;;;;;5098870;28;20047;-76
2023/04/07 03:35:58;;;;;;;94.97;53.07;;;6.10;80.90;;;;;;5100031;28;20085;-76
2023/04/07 03:38:25;;;;;;;101.23;53.50;;;6.10;80.80;;;;;;5084042;28;20058;-76
2023/04/07 03:40:51;;;;;;;103.30;55.57;;;6.10;80.80;;;;;;5098886;28;20087;-76
2023/04/07 03:43:16;;;;;;;91.77;53.17;;;6.10;80.80;;;;;;5098801;28;20074;-76
2023/04/07 03:45:42;;;;;;;98.87;55.20;;;6.10;80.60;;;;;;5099553;28;20032;-76
2023/04/07 03:48:10;;;;;;;94.33;53.93;;;6.10;80.80;;;;;;5067449;28;20040;-76
2023/04/07 03:50:37;;;;;;;93.17;54.07;;;6.10;80.70;;;;;;5100470;28;20047;-76
2023/04/07 03:53:03;;;;;;;90.90;51.73;;;6.10;80.70;;;;;;5093984;28;20466;-76
2023/04/07 03:55:29;;;;;;;88.90;52.13;;;6.10;80.80;;;;;;5100601;28;20071;-76
2023/04/07 03:57:55;;;;;;;79.83;48.70;;;6.10;80.90;;;;;;5083779;28;20046;-76
2023/04/07 04:00:21;;;;;;;85.33;50.77;;;6.10;80.70;;;;;;5098968;28;20036;-76
2023/04/07 04:02:47;;;;;;;88.30;52.23;;;6.10;80.80;;;;;;5079512;28;20168;-76
2023/04/07 04:05:12;;;;;;;84.03;49.73;;;6.10;80.70;;;;;;5103223;28;20077;-76
2023/04/07 04:07:38;;;;;;;78.83;48.20;;;6.10;80.70;;;;;;5082445;28;20048;-76
2023/04/07 04:10:04;;;;;;;79.70;49.10;;;6.10;80.90;;;;;;5069234;28;20466;-76
2023/04/07 04:12:30;;;;;;;86.73;51.43;;;6.10;81.00;;;;;;5057075;28;20056;-76
2023/04/07 04:14:56;;;;;;;81.17;50.17;;;6.10;80.90;;;;;;5102751;28;20043;-76
2023/04/07 04:17:22;;;;;;;80.17;48.93;;;6.10;80.80;;;;;;5090010;27;20114;-76
2023/04/07 04:19:48;;;;;;;78.33;48.87;;;6.10;80.70;;;;;;5103740;28;20537;-76
2023/04/07 04:22:13;;;;;;;80.13;49.07;;;6.10;80.70;;;;;;5103412;28;20044;-76
2023/04/07 04:24:40;;;;;;;81.43;50.00;;;6.10;80.80;;;;;;5103792;28;20054;-76
2023/04/07 04:27:06;;;;;;;87.77;52.33;;;6.10;80.70;;;;;;5086304;28;20489;-76
2023/04/07 04:29:32;;;;;;;85.50;51.10;;;6.10;80.60;;;;;;5101667;28;20040;-76
2023/04/07 04:31:58;;;;;;;83.80;50.27;;;6.10;80.60;;;;;;5105323;28;20075;-76
2023/04/07 04:34:24;;;;;;;81.20;50.50;;;6.10;80.60;;;;;;5102188;27;20404;-76
2023/04/07 04:36:50;;;;;;;93.30;53.70;;;6.10;80.50;;;;;;5045664;28;20560;-76
2023/04/07 04:39:15;;;;;;;89.37;51.17;;;6.10;80.50;;;;;;5109424;28;20041;-76
2023/04/07 04:41:41;;;;;;;87.53;50.80;;;6.10;80.50;;;;;;5098657;28;20104;-76
2023/04/07 04:44:07;;;;;;;95.97;53.70;;;6.10;80.50;;;;;;5096216;28;20170;-76
2023/04/07 04:46:32;;;;;;;95.23;53.87;;;6.10;80.50;;;;;;5091740;28;20048;-76
2023/04/07 04:48:58;;;;;;;94.43;53.47;;;6.00;80.60;;;;;;5079049;28;20478;-76
2023/04/07 04:51:24;;;;;;;89.97;52.03;;;6.00;80.60;;;;;;5100092;28;20048;-76
2023/04/07 04:53:50;;;;;;;86.30;51.67;;;6.00;80.60;;;;;;5093898;28;20119;-76
2023/04/07 04:56:16;;;;;;;88.00;51.27;;;6.00;80.50;;;;;;5084312;28;20123;-75
2023/04/07 04:58:45;;;;;;;86.90;52.00;;;6.00;80.50;;;;;;5088965;28;20044;-76
2023/04/07 05:01:11;;;;;;;82.90;52.67;;;6.00;80.60;;;;;;5078968;28;20048;-76
2023/04/07 05:03:37;;;;;;;82.13;50.17;;;6.00;80.50;;;;;;5077000;28;20062;-76
2023/04/07 05:06:03;;;;;;;89.57;50.63;;;6.00;80.70;;;;;;5107620;28;20036;-76
2023/04/07 05:08:28;;;;;;;82.10;49.93;;;6.00;80.60;;;;;;5045694;28;20047;-76
2023/04/07 05:10:54;;;;;;;78.43;49.43;;;5.90;80.60;;;;;;5102346;28;20047;-76
2023/04/07 05:13:20;;;;;;;78.70;49.53;;;5.90;80.60;;;;;;5093463;28;20040;-76
2023/04/07 05:15:46;;;;;;;76.77;47.93;;;6.00;80.50;;;;;;5075619;28;20051;-76
2023/04/07 05:18:12;;;;;;;78.23;46.93;;;6.00;80.50;;;;;;5082399;27;20044;-76
2023/04/07 05:20:38;;;;;;;72.37;45.47;;;6.00;80.50;;;;;;5094477;28;20058;-76
2023/04/07 05:23:03;;;;;;;75.43;47.80;;;6.00;80.50;;;;;;5075169;28;20052;-76
2023/04/07 05:25:29;;;;;;;69.53;44.80;;;6.00;80.40;;;;;;5096050;28;20056;-76
2023/04/07 05:27:56;;;;;;;63.23;44.87;;;6.00;80.40;;;;;;5076832;28;20482;-76
2023/04/07 05:30:22;;;;;;;67.13;45.93;;;6.00;80.30;;;;;;5094313;28;20502;-76
2023/04/07 05:32:48;;;;;;;65.03;43.57;;;6.00;80.30;;;;;;5075937;28;20063;-76
2023/04/07 05:35:13;;;;;;;60.60;42.10;;;6.00;80.30;;;;;;5075953;28;20054;-76
2023/04/07 05:37:39;;;;;;;61.30;41.90;;;6.00;80.30;;;;;;5077564;28;20518;-76
2023/04/07 05:40:05;;;;;;;58.73;39.43;;;6.00;80.30;;;;;;5093355;28;20052;-76
2023/04/07 05:42:31;;;;;;;54.87;39.27;;;6.00;80.20;;;;;;5104766;28;20382;-76
2023/04/07 05:44:57;;;;;;;58.33;39.50;;;6.00;80.20;;;;;;5094520;28;20043;-76
2023/04/07 05:47:22;;;;;;;56.57;40.27;;;6.10;80.30;;;;;;5060022;28;20933;-76
2023/04/07 05:49:48;;;;;;;51.07;38.10;;;6.10;80.20;;;;;;5093876;28;20215;-76
2023/04/07 05:52:14;;;;;;;57.27;38.60;;;6.10;80.20;;;;;;5096733;28;20056;-76
2023/04/07 05:54:40;;;;;;;54.30;38.40;;;6.10;80.10;;;;;;5078270;28;20089;-76
2023/04/07 05:57:06;;;;;;;52.50;37.20;;;6.10;80.00;;;;;;5079576;28;20493;-75
2023/04/07 05:59:33;;;;;;;53.50;37.53;;;6.10;80.00;;;;;;5077781;28;20038;-76
2023/04/07 06:01:59;;;;;;;54.93;37.90;;;6.10;80.00;;;;;;5098281;28;20044;-76
2023/04/07 06:04:24;;;;;;;51.00;35.73;;;6.10;80.00;;;;;;5097724;28;20535;-76
2023/04/07 06:06:53;;;;;;;52.47;37.10;;;6.10;79.80;;;;;;5080043;28;20516;-75
2023/04/07 06:09:23;;;;;;;46.30;34.83;;;6.20;79.80;;;;;;5094208;28;20443;-76
2023/04/07 06:11:49;;;;;;;50.60;35.80;;;6.20;79.80;;;;;;5095597;28;20047;-76
2023/04/07 06:14:16;;;;;;;46.80;35.33;;;6.20;79.70;;;;;;5097637;28;20048;-76
2023/04/07 06:16:42;;;;;;;50.23;35.00;;;6.20;79.70;;;;;;5069430;28;20047;-75
2023/04/07 06:19:08;;;;;;;46.90;34.63;;;6.20;79.70;;;;;;5093904;28;20406;-76
2023/04/07 06:21:33;;;;;;;45.33;33.57;;;6.20;79.70;;;;;;5095222;28;20036;-76
2023/04/07 06:23:59;;;;;;;46.40;34.33;;;6.20;79.60;;;;;;5094287;28;20050;-76
2023/04/07 06:26:26;;;;;;;47.93;34.43;;;6.20;79.50;;;;;;5094079;28;20936;-75
2023/04/07 06:28:52;;;;;;;46.23;34.93;;;6.20;79.50;;;;;;5099538;28;20044;-76
2023/04/07 06:31:17;;;;;;;44.90;33.53;;;6.30;79.40;;;;;;5108745;28;20436;-76
2023/04/07 06:33:44;;;;;;;44.17;34.03;;;6.30;79.40;;;;;;5091026;28;20040;-76
2023/04/07 06:36:10;;;;;;;44.60;32.50;;;6.30;79.30;;;;;;5083901;28;20048;-75
2023/04/07 06:38:37;;;;;;;40.33;30.93;;;6.30;79.30;;;;;;5103492;28;20058;-76
2023/04/07 06:41:02;;;;;;;41.30;30.73;;;6.30;79.20;;;;;;5106362;28;20497;-76
2023/04/07 06:43:29;;;;;;;39.63;29.87;;;6.40;79.20;;;;;;5109344;28;20075;-76
2023/04/07 06:45:55;;;;;;;38.47;29.50;;;6.40;79.20;;;;;;5086103;28;20054;-76
2023/04/07 06:48:21;;;;;;;38.93;29.80;;;6.40;79.10;;;;;;5085969;28;20123;-76
2023/04/07 06:50:50;;;;;;;40.17;30.27;;;6.40;79.10;;;;;;5097482;28;20051;-76
2023/04/07 06:53:16;;;;;;;41.80;30.83;;;6.50;79.10;;;;;;5079742;28;20092;-76
2023/04/07 06:55:41;;;;;;;38.73;29.13;;;6.50;79.10;;;;;;5105408;28;20035;-76
2023/04/07 06:58:07;;;;;;;40.27;30.23;;;6.50;79.10;;;;;;5076753;28;20082;-76
2023/04/07 07:00:34;;;;;;;38.40;27.63;;;6.50;79.00;;;;;;5102511;27;20043;-76
2023/04/07 07:03:00;;;;;;;36.07;26.43;;;6.60;79.00;;;;;;5083013;28;20043;-76
2023/04/07 07:05:26;;;;;;;30.67;24.20;;;6.60;78.90;;;;;;5105026;28;20047;-76
2023/04/07 07:07:52;;;;;;;34.33;25.70;;;6.60;78.70;;;;;;5092971;28;20173;-76
2023/04/07 07:10:21;;;;;;;34.03;26.07;;;6.70;78.70;;;;;;5109162;28;20473;-76
2023/04/07 07:12:50;;;;;;;37.87;28.63;;;6.70;78.70;;;;;;5098998;28;20394;-76
2023/04/07 07:15:16;;;;;;;34.53;26.73;;;6.70;78.70;;;;;;5098937;28;20044;-76
2023/04/07 07:17:41;;;;;;;34.90;27.30;;;6.80;78.70;;;;;;5082441;27;20051;-76
2023/04/07 07:20:08;;;;;;;34.20;27.03;;;6.80;78.70;;;;;;5102640;28;20035;-75
2023/04/07 07:22:33;;;;;;;35.03;26.33;;;6.80;78.60;;;;;;5099182;28;20055;-75
2023/04/07 07:24:59;;;;;;;33.30;25.17;;;6.80;78.40;;;;;;5095929;28;20477;-76
2023/04/07 07:27:25;;;;;;;34.27;25.73;;;6.90;78.40;;;;;;5081609;28;20059;-75
2023/04/07 07:29:50;;;;;;;33.63;25.70;;;6.90;78.30;;;;;;5096664;28;20104;-76
2023/04/07 07:32:16;;;;;;;32.93;25.53;;;6.90;78.20;;;;;;5093502;28;20454;-76
2023/04/07 07:34:42;;;;;;;33.43;25.77;;;7.00;78.30;;;;;;5096493;28;20089;-76
2023/04/07 07:37:07;;;;;;;34.60;26.50;;;7.00;78.30;;;;;;5081205;28;20051;-76
2023/04/07 07:39:33;;;;;;;34.63;26.40;;;7.00;78.40;;;;;;5097071;28;20063;-76
2023/04/07 07:42:00;;;;;;;33.87;25.17;;;7.20;78.40;;;;;;5096610;28;20077;-74
2023/04/07 07:44:26;;;;;;;31.43;24.47;;;7.20;78.20;;;;;;5096809;28;20324;-76
2023/04/07 07:46:51;;;;;;;31.33;24.70;;;7.20;78.00;;;;;;5080579;28;20138;-75
2023/04/07 07:49:17;;;;;;;31.50;24.30;;;7.30;77.90;;;;;;5094675;28;20391;-76
2023/04/07 07:51:44;;;;;;;31.10;24.87;;;7.30;77.80;;;;;;5076698;28;20097;-76
2023/04/07 07:54:10;;;;;;;28.63;23.50;;;7.40;77.80;;;;;;5095861;28;20055;-75
2023/04/07 07:56:36;;;;;;;28.13;22.93;;;7.40;77.90;;;;;;5080830;28;20073;-75
2023/04/07 07:59:06;;;;;;;28.77;23.17;;;7.50;77.50;;;;;;5091915;28;20060;-75
2023/04/07 08:01:32;;;;;;;29.50;23.03;;;7.50;77.60;;;;;;5097454;28;20056;-76
2023/04/07 08:03:58;;;;;;;29.70;23.80;;;7.50;77.60;;;;;;5082884;28;20114;-75
2023/04/07 08:06:24;;;;;;;25.63;21.17;;;7.60;77.50;;;;;;5085240;28;20495;-75
2023/04/07 08:08:50;;;;;;;28.70;22.40;;;7.70;77.50;;;;;;5093976;28;20043;-76
2023/04/07 08:11:15;;;;;;;27.57;21.50;;;7.80;77.30;;;;;;5095787;28;20135;-76
2023/04/07 08:13:44;;;;;;;25.13;20.33;;;7.80;77.20;;;;;;5096258;28;20418;-76
2023/04/07 08:16:10;;;;;;;25.57;20.67;;;7.80;77.20;;;;;;5088976;28;20401;-75
2023/04/07 08:18:36;;;;;;;26.77;21.37;;;7.80;76.90;;;;;;5073003;28;20082;-76
2023/04/07 08:21:04;;;;;;;24.77;20.07;;;7.80;77.10;;;;;;5092146;28;20178;-76
2023/04/07 08:23:30;;;;;;;25.27;20.43;;;7.80;77.20;;;;;;5074923;28;21247;-75
2023/04/07 08:25:56;;;;;;;26.17;19.43;;;7.80;77.20;;;;;;5093341;28;20612;-76
2023/04/07 08:28:24;;;;;;;23.23;18.80;;;7.80;77.00;;;;;;5079030;28;20044;-75
2023/04/07 08:30:50;;;;;;;23.03;18.67;;;7.80;76.90;;;;;;5080219;28;20052;-76
2023/04/07 08:33:16;;;;;;;22.47;19.20;;;7.90;76.80;;;;;;5094324;28;20517;-76
2023/04/07 08:35:42;;;;;;;24.03;19.73;;;8.00;76.80;;;;;;5082081;28;20051;-76
2023/04/07 08:38:08;;;;;;;21.20;17.17;;;8.00;76.90;;;;;;5075509;28;20056;-75
2023/04/07 08:40:34;;;;;;;20.00;16.90;;;8.00;76.50;;;;;;5083119;28;20110;-76
2023/04/07 08:43:07;;;;;;;20.60;17.57;;;8.00;76.40;;;;;;5056987;28;20463;-76
2023/04/07 08:45:35;;;;;;;21.37;17.47;;;8.00;76.40;;;;;;5073188;28;20036;-75
2023/04/07 08:48:07;;;;;;;19.30;16.40;;;8.10;76.50;;;;;;5022829;28;20056;-76
2023/04/07 08:50:33;;;;;;;20.88;17.08;;;8.20;76.50;;;;;;5042532;28;20528;-75
2023/04/07 08:53:03;;;;;;;21.67;18.10;;;8.20;76.30;;;;;;5078425;28;20557;-76
2023/04/07 08:55:29;;;;;;;22.90;17.73;;;8.20;76.20;;;;;;5061309;28;20457;-75
2023/04/07 08:57:56;;;;;;;19.80;16.83;;;8.30;76.20;;;;;;5047634;28;20143;-75
2023/04/07 09:00:21;;;;;;;20.23;16.77;;;8.30;76.00;;;;;;5060044;28;20056;-76
2023/04/07 09:02:50;;;;;;;21.23;18.03;;;8.40;75.90;;;;;;5077027;28;20036;-75
2023/04/07 09:05:16;;;;;;;21.37;17.97;;;8.50;75.70;;;;;;5077477;28;20059;-75
2023/04/07 09:07:42;;;;;;;22.87;18.40;;;8.60;75.30;;;;;;5063094;28;20052;-75
2023/04/07 09:10:08;;;;;;;21.87;17.87;;;8.60;75.40;;;;;;5075480;28;20059;-75
2023/04/07 09:12:35;;;;;;;21.83;18.27;;;8.60;75.20;;;;;;5076850;28;20056;-75
2023/04/07 09:15:00;;;;;;;22.97;19.80;;;8.60;75.30;;;;;;5075798;28;20501;-76
2023/04/07 09:17:27;;;;;;;21.37;18.47;;;8.60;75.50;;;;;;5060776;28;20139;-76
2023/04/07 09:19:58;;;;;;;22.83;18.83;;;8.60;75.00;;;;;;5076833;28;20044;-76
2023/04/07 09:22:34;;;;;;;21.15;16.85;;;8.80;75.30;;;;;;5058803;28;20519;-75
2023/04/07 09:25:17;;;;;;;23.27;18.90;;;9.00;74.40;;;;;;5075792;28;20048;-76
2023/04/07 09:28:01;;;;;;;25.73;19.37;;;9.00;74.20;;;;;;5060131;28;20494;-76
2023/04/07 09:30:27;;;;;;;21.27;18.37;;;9.10;74.40;;;;;;5063347;28;20036;-76
2023/04/07 09:32:53;;;;;;;21.33;17.77;;;9.20;74.40;;;;;;5062310;28;20044;-76
2023/04/07 09:35:21;;;;;;;21.67;18.63;;;9.20;74.20;;;;;;5076384;28;20410;-76
2023/04/07 09:38:07;;;;;;;21.73;18.60;;;9.20;74.00;;;;;;5060004;28;20566;-76
2023/04/07 09:40:33;;;;;;;21.87;18.77;;;9.20;73.00;;;;;;5089351;27;20067;-76
2023/04/07 09:43:00;;;;;;;24.03;19.40;;;9.20;73.50;;;;;;5095404;28;20055;-76
2023/04/07 09:45:38;;;;;;;21.97;17.67;;;9.20;73.60;;;;;;5094718;28;20493;-76
2023/04/07 09:48:28;;;;;;;22.93;19.50;;;9.20;73.50;;;;;;5081026;28;20090;-76
2023/04/07 09:51:22;;;;;;;24.03;19.20;;;9.30;73.40;;;;;;5085774;28;20063;-75
2023/04/07 09:53:50;;;;;;;21.37;18.07;;;9.40;73.30;;;;;;5082397;28;20408;-76
2023/04/07 09:56:18;;;;;;;21.27;17.20;;;9.50;73.40;;;;;;5085819;28;20879;-75
2023/04/07 09:58:47;;;;;;;20.80;17.33;;;9.60;73.10;;;;;;5090982;28;20040;-76
2023/04/07 10:01:15;;;;;;;21.97;16.93;;;9.60;72.90;;;;;;5095719;28;20159;-75
2023/04/07 10:03:42;;;;;;;19.17;16.57;;;9.50;72.30;;;;;;5096007;28;20140;-76
2023/04/07 10:06:08;;;;;;;22.63;17.47;;;9.50;72.50;;;;;;5090497;28;20047;-75
2023/04/07 10:08:36;;;;;;;22.43;18.00;;;9.50;72.50;;;;;;5076174;28;20047;-76
2023/04/07 10:11:03;;;;;;;20.13;17.73;;;9.50;72.50;;;;;;5096071;28;20091;-76
2023/04/07 10:13:30;;;;;;;18.30;16.30;;;9.50;72.50;;;;;;5085984;28;20043;-76
2023/04/07 10:15:57;;;;;;;17.47;15.10;;;9.60;72.50;;;;;;5077042;28;20047;-76
2023/04/07 10:18:30;;;;;;;19.13;15.87;;;9.60;72.10;;;;;;5079953;27;20625;-75
2023/04/07 10:20:59;;;;;;;20.10;16.90;;;9.60;72.10;;;;;;5062307;28;20044;-75
2023/04/07 10:23:36;;;;;;;17.33;15.40;;;9.90;72.30;;;;;;5083037;28;20048;-75
2023/04/07 10:26:03;;;;;;;20.20;15.43;;;10.10;72.00;;;;;;5085620;28;20374;-75
2023/04/07 10:28:31;;;;;;;20.50;15.90;;;10.20;71.70;;;;;;5078670;27;20102;-75
2023/04/07 10:30:57;;;;;;;15.63;13.93;;;10.10;71.80;;;;;;5080352;28;20150;-76
2023/04/07 10:33:45;;;;;;;17.40;14.90;;;10.00;71.80;;;;;;5080654;28;20097;-76
2023/04/07 10:36:11;;;;;;;17.33;15.10;;;10.00;71.70;;;;;;5085431;28;20069;-75
2023/04/07 10:38:36;;;;;;;16.63;13.80;;;9.90;71.90;;;;;;5085407;28;20524;-75
2023/04/07 10:41:32;;;;;;;16.80;13.40;;;9.90;71.90;;;;;;5092682;28;20068;-75
2023/04/07 10:43:58;;;;;;;14.40;12.03;;;9.90;71.80;;;;;;5090398;28;20505;-75
2023/04/07 10:46:24;;;;;;;16.00;11.80;;;9.80;71.90;;;;;;5080339;28;20561;-75
2023/04/07 10:49:09;;;;;;;12.57;9.47;;;9.80;72.00;;;;;;5078068;28;20429;-75
2023/04/07 10:51:35;;;;;;;14.50;10.67;;;9.90;71.50;;;;;;5095190;28;20055;-75
2023/04/07 10:54:20;;;;;;;11.00;9.80;;;10.00;71.70;;;;;;5080782;28;20391;-76
2023/04/07 10:57:02;;;;;;;13.63;11.20;;;10.00;71.10;;;;;;5063192;28;20545;-75
2023/04/07 10:59:31;;;;;;;16.10;10.65;;;10.00;71.80;;;;;;5092439;28;20600;-76
2023/04/07 11:02:26;;;;;;;11.53;10.17;;;9.90;71.50;;;;;;5074690;28;20455;-75
2023/04/07 11:04:52;;;;;;;12.87;11.10;;;9.80;71.20;;;;;;5069146;28;20075;-75
2023/04/07 11:07:18;;;;;;;12.47;10.17;;;9.80;71.60;;;;;;5076465;28;20130;-75
2023/04/07 11:09:44;;;;;;;13.60;11.10;;;9.90;71.70;;;;;;5095481;28;20135;-75
2023/04/07 11:12:23;;;;;;;12.00;10.53;;;10.00;71.60;;;;;;5090721;28;20497;-75
2023/04/07 11:14:48;;;;;;;13.00;11.60;;;10.20;71.10;;;;;;5094815;28;20099;-76
2023/04/07 11:17:16;;;;;;;15.00;12.70;;;10.30;71.10;;;;;;5078593;27;20134;-75
2023/04/07 11:19:54;;;;;;;16.90;13.70;;;10.30;70.50;;;;;;5096032;28;20059;-75
2023/04/07 11:22:20;;;;;;;13.67;12.23;;;10.40;69.70;;;;;;5077508;28;20052;-75
2023/04/07 11:24:46;;;;;;;18.00;13.60;;;10.50;70.10;;;;;;5078260;28;20059;-75
2023/04/07 11:27:13;;;;;;;14.87;13.17;;;10.70;70.10;;;;;;5076869;28;20131;-75
2023/04/07 11:29:39;;;;;;;14.90;13.40;;;10.80;69.50;;;;;;5095408;28;20043;-76
2023/04/07 11:32:05;;;;;;;16.67;13.43;;;10.80;69.90;;;;;;5093602;28;20043;-75
2023/04/07 11:34:32;;;;;;;19.03;14.23;;;10.80;69.80;;;;;;5096701;28;20035;-75
2023/04/07 11:37:17;;;;;;;14.53;12.53;;;10.80;69.70;;;;;;5078865;28;20043;-75
2023/04/07 11:39:46;;;;;;;18.53;14.00;;;10.70;69.40;;;;;;5093632;28;20447;-75
2023/04/07 11:42:12;;;;;;;16.10;12.37;;;10.70;69.70;;;;;;5081520;28;20060;-75
2023/04/07 11:44:46;;;;;;;14.47;12.77;;;10.70;69.50;;;;;;5075254;28;20063;-75
2023/04/07 11:47:12;;;;;;;14.53;12.40;;;10.70;69.00;;;;;;5057305;28;20113;-75
2023/04/07 11:49:45;;;;;;;14.90;12.87;;;10.80;69.40;;;;;;5055371;28;20045;-75
2023/04/07 11:52:11;;;;;;;13.67;12.07;;;10.90;69.10;;;;;;5040101;28;20052;-75
2023/04/07 11:54:45;;;;;;;12.83;11.20;;;11.00;68.90;;;;;;5040055;28;20036;-75
2023/04/07 11:57:12;;;;;;;13.43;12.07;;;11.00;68.20;;;;;;5040889;28;20048;-75
2023/04/07 11:59:40;;;;;;;13.80;12.27;;;11.10;69.00;;;;;;5041417;28;20167;-75
2023/04/07 12:02:07;;;;;;;12.20;10.90;;;11.20;69.00;;;;;;5061755;28;20052;-75
2023/04/07 12:04:35;;;;;;;12.40;10.77;;;11.30;68.40;;;;;;5074579;28;20055;-75
2023/04/07 12:07:10;;;;;;;14.00;10.73;;;11.30;68.10;;;;;;5032889;28;20337;-75
2023/04/07 12:09:37;;;;;;;15.20;10.87;;;11.30;67.20;;;;;;5073468;28;20040;-75
2023/04/07 12:12:07;;;;;;;13.67;10.47;;;11.30;67.90;;;;;;5074593;28;20044;-75
2023/04/07 12:14:34;;;;;;;11.87;10.27;;;11.30;68.00;;;;;;5063060;28;20086;-75
2023/04/07 12:17:02;;;;;;;13.30;11.33;;;11.20;67.80;;;;;;5044336;28;20140;-75
2023/04/07 12:19:29;;;;;;;11.60;9.40;;;11.20;68.40;;;;;;5072777;28;20593;-75
2023/04/07 12:21:55;;;;;;;13.93;11.37;;;11.30;68.00;;;;;;5062456;28;20079;-75
2023/04/07 12:24:22;;;;;;;11.73;10.47;;;11.40;68.20;;;;;;5076129;28;20087;-75
2023/04/07 12:26:48;;;;;;;13.03;10.97;;;11.50;67.90;;;;;;5063075;28;20036;-75
2023/04/07 12:29:15;;;;;;;13.03;11.20;;;11.60;67.90;;;;;;5060770;28;20062;-75
2023/04/07 12:31:42;;;;;;;12.30;11.00;;;11.70;68.00;;;;;;5077069;28;20074;-75
2023/04/07 12:34:08;;;;;;;12.43;10.17;;;11.70;67.80;;;;;;5061507;28;20195;-75
2023/04/07 12:36:34;;;;;;;12.32;10.30;;;11.80;67.50;;;;;;5065616;28;20478;-76